Time;durP1;ratioP1;P1;durP2;ratioP2;P2;SDS_P1;SDS_P2;PMS_P1;PMS_P2;Temp;Humidity;BMP_temperature;BMP_pressure;BME280_temperature;BME280_humidity;BME280_pressure;Samples;Min_cycle;Max_cycle;Signal;HPM_P1;HPM_P2
2023/10/22 00:00:09;;;;;;;21.90;19.60;;;;;;;15.24;100.00;97842.48;109578;1251;65040;-69
2023/10/22 00:02:36;;;;;;;23.80;19.80;;;;;;;15.24;100.00;97847.27;109412;1251;58944;-69
2023/10/22 00:05:04;;;;;;;33.70;30.50;;;;;;;15.24;100.00;97851.67;109590;1251;58995;-69
2023/10/22 00:07:32;;;;;;;33.40;30.00;;;;;;;15.24;100.00;97853.52;109616;1251;66096;-69
2023/10/22 00:09:59;;;;;;;29.50;26.70;;;;;;;15.22;100.00;97850.69;109528;1251;59044;-70
2023/10/22 00:12:25;;;;;;;29.30;26.00;;;;;;;15.20;100.00;97850.39;109536;1251;64178;-69
2023/10/22 00:14:52;;;;;;;27.10;24.60;;;;;;;15.19;100.00;97851.92;109568;1251;58958;-70
2023/10/22 00:17:18;;;;;;;26.70;23.90;;;;;;;15.18;100.00;97853.42;109646;1251;59153;-69
2023/10/22 00:19:46;;;;;;;25.70;23.20;;;;;;;15.18;100.00;97850.45;109593;1251;67248;-69
2023/10/22 00:22:14;;;;;;;23.00;20.60;;;;;;;15.18;100.00;97847.72;109611;1251;60096;-69
2023/10/22 00:24:41;;;;;;;23.50;21.20;;;;;;;15.16;100.00;97847.02;109518;1251;65038;-69
2023/10/22 00:27:07;;;;;;;21.60;19.40;;;;;;;15.14;100.00;97847.77;109366;1257;59018;-69
2023/10/22 00:29:34;;;;;;;24.80;22.40;;;;;;;15.14;100.00;97853.24;109610;1251;59253;-69
2023/10/22 00:32:00;;;;;;;24.80;22.30;;;;;;;15.15;100.00;97852.17;109568;1251;59433;-69
2023/10/22 00:34:27;;;;;;;32.90;29.40;;;;;;;15.14;100.00;97849.21;109413;1251;60214;-70
2023/10/22 00:36:53;;;;;;;27.10;24.20;;;;;;;15.12;100.00;97852.19;109567;1251;58905;-69
2023/10/22 00:39:19;;;;;;;25.60;23.00;;;;;;;15.11;100.00;97854.34;109478;1253;59057;-69
2023/10/22 00:41:46;;;;;;;24.50;21.90;;;;;;;15.09;100.00;97857.45;109561;1250;59129;-69
2023/10/22 00:44:13;;;;;;;24.40;22.00;;;;;;;15.05;100.00;97864.23;109604;1251;59318;-69
2023/10/22 00:46:39;;;;;;;22.20;19.90;;;;;;;15.03;100.00;97864.77;109635;1251;59996;-69
2023/10/22 00:49:06;;;;;;;24.10;20.80;;;;;;;15.04;100.00;97857.17;109379;1251;63816;-69
2023/10/22 00:51:33;;;;;;;28.20;22.80;;;;;;;15.06;100.00;97850.55;109593;1251;59397;-68
2023/10/22 00:54:00;;;;;;;24.90;22.40;;;;;;;15.10;100.00;97845.67;109335;1251;59135;-68
2023/10/22 00:56:26;;;;;;;24.30;21.60;;;;;;;15.13;100.00;97837.52;109567;1251;67071;-69
2023/10/22 00:58:53;;;;;;;27.80;22.60;;;;;;;15.13;100.00;97831.35;109591;1254;59941;-69
2023/10/22 01:01:21;;;;;;;26.40;23.60;;;;;;;15.11;100.00;97829.45;109607;1251;64069;-70
2023/10/22 01:03:47;;;;;;;26.40;23.60;;;;;;;15.09;100.00;97828.60;109508;1251;59396;-69
2023/10/22 01:06:14;;;;;;;28.80;25.80;;;;;;;15.09;100.00;97823.80;109574;1251;59114;-69
2023/10/22 01:08:41;;;;;;;32.60;27.40;;;;;;;15.09;100.00;97822.36;109650;1250;64951;-69
2023/10/22 01:11:09;;;;;;;31.00;27.90;;;;;;;15.10;100.00;97821.18;109534;1251;60221;-69
2023/10/22 01:13:37;;;;;;;31.70;28.40;;;;;;;15.10;100.00;97819.02;109604;1251;63889;-70
2023/10/22 01:16:05;;;;;;;30.60;27.30;;;;;;;15.09;100.00;97817.10;109512;1256;59011;-69
2023/10/22 01:18:31;;;;;;;31.80;28.60;;;;;;;15.08;100.00;97818.73;109601;1250;59069;-69
2023/10/22 01:20:58;;;;;;;32.70;29.40;;;;;;;15.05;100.00;97817.73;109580;1250;64808;-69
2023/10/22 01:23:25;;;;;;;30.50;27.40;;;;;;;15.02;100.00;97813.39;109603;1251;59281;-69
2023/10/22 01:25:51;;;;;;;33.50;30.00;;;;;;;15.00;100.00;97812.41;109538;1251;62853;-69
2023/10/22 01:28:18;;;;;;;31.80;28.40;;;;;;;14.99;100.00;97804.48;109606;1251;58933;-70
2023/10/22 01:30:44;;;;;;;30.60;27.30;;;;;;;14.98;100.00;97793.77;109639;1251;58964;-70
2023/10/22 01:33:11;;;;;;;33.90;29.60;;;;;;;14.98;100.00;97787.73;109553;1251;64823;-70
2023/10/22 01:35:37;;;;;;;35.20;31.40;;;;;;;14.97;100.00;97786.55;109631;1251;58946;-69
2023/10/22 01:38:04;;;;;;;32.90;29.50;;;;;;;14.99;100.00;97780.71;109629;1251;59014;-69
2023/10/22 01:40:30;;;;;;;33.10;29.70;;;;;;;14.99;100.00;97777.77;109559;1251;59017;-69
2023/10/22 01:42:57;;;;;;;33.80;28.90;;;;;;;15.00;100.00;97770.39;109588;1251;59128;-69
2023/10/22 01:45:24;;;;;;;31.60;28.10;;;;;;;14.99;100.00;97768.17;109615;1251;59005;-70
2023/10/22 01:47:50;;;;;;;32.20;28.70;;;;;;;14.97;100.00;97769.73;109347;1251;60271;-69
2023/10/22 01:50:17;;;;;;;31.80;28.60;;;;;;;14.97;100.00;97770.27;109612;1251;64167;-69
2023/10/22 01:52:43;;;;;;;35.10;30.80;;;;;;;14.98;100.00;97767.02;109576;1251;58945;-69
2023/10/22 01:55:10;;;;;;;34.10;30.40;;;;;;;14.98;100.00;97764.31;109590;1250;59022;-69
2023/10/22 01:57:36;;;;;;;33.90;30.40;;;;;;;14.99;100.00;97763.15;109604;1251;67016;-69
2023/10/22 02:00:34;;;;;;;33.70;29.50;;;;;;;14.99;100.00;97761.66;109584;1251;59087;-69
2023/10/22 02:03:00;;;;;;;34.40;28.30;;;;;;;15.00;100.00;97759.24;109576;1250;64243;-69
2023/10/22 02:05:31;;;;;;;33.10;29.50;;;;;;;15.01;100.00;97757.91;109588;1250;58969;-69
2023/10/22 02:07:58;;;;;;;33.10;29.60;;;;;;;15.04;100.00;97757.09;109466;1253;59026;-69
2023/10/22 02:10:25;;;;;;;32.40;29.00;;;;;;;15.04;100.00;97763.27;109576;1251;66843;-69
2023/10/22 02:12:52;;;;;;;35.20;30.40;;;;;;;15.04;100.00;97761.19;109551;1250;60266;-69
2023/10/22 02:15:18;;;;;;;34.30;30.00;;;;;;;15.05;100.00;97760.19;109600;1250;64020;-69
2023/10/22 02:17:45;;;;;;;34.70;28.80;;;;;;;15.05;100.00;97757.06;109589;1251;58962;-69
2023/10/22 02:20:11;;;;;;;32.50;28.80;;;;;;;15.06;100.00;97754.85;109635;1251;59151;-69
2023/10/22 02:22:38;;;;;;;33.20;29.70;;;;;;;15.05;100.00;97754.98;109395;1251;59028;-69
2023/10/22 02:25:06;;;;;;;31.30;28.00;;;;;;;15.02;100.00;97748.84;109627;1251;59269;-69
2023/10/22 02:27:33;;;;;;;30.90;27.00;;;;;;;14.99;100.00;97747.52;109611;1251;63876;-68
2023/10/22 02:29:59;;;;;;;33.00;29.00;;;;;;;14.97;100.00;97745.05;109377;1251;59059;-69
2023/10/22 02:32:26;;;;;;;32.90;29.30;;;;;;;14.96;100.00;97741.61;109590;1251;59021;-69
2023/10/22 02:34:52;;;;;;;31.00;27.80;;;;;;;14.96;100.00;97739.35;109596;1251;59471;-70
2023/10/22 02:37:19;;;;;;;32.80;29.40;;;;;;;14.92;100.00;97740.77;109650;1251;59240;-70
2023/10/22 02:39:46;;;;;;;38.80;34.80;;;;;;;14.90;100.00;97738.63;109542;1254;62504;-70
2023/10/22 02:42:13;;;;;;;38.40;34.40;;;;;;;14.91;100.00;97732.11;109601;1251;58956;-70
2023/10/22 02:44:40;;;;;;;40.40;35.40;;;;;;;14.90;100.00;97726.25;109582;1250;59011;-70
2023/10/22 02:47:06;;;;;;;37.80;33.80;;;;;;;14.91;100.00;97725.52;109574;1250;59017;-68
2023/10/22 02:49:33;;;;;;;37.50;33.50;;;;;;;14.90;100.00;97723.95;109619;1250;58940;-69
2023/10/22 02:51:59;;;;;;;38.30;34.20;;;;;;;14.90;100.00;97730.75;109601;1250;59203;-69
2023/10/22 02:54:26;;;;;;;34.60;30.80;;;;;;;14.89;100.00;97729.83;109489;1251;59442;-69
2023/10/22 02:56:53;;;;;;;34.30;30.70;;;;;;;14.88;100.00;97725.08;109649;1250;58992;-69
2023/10/22 02:59:19;;;;;;;43.30;39.00;;;;;;;14.88;100.00;97721.58;109660;1251;58926;-68
2023/10/22 03:01:45;;;;;;;40.00;35.90;;;;;;;14.87;100.00;97718.73;109617;1251;58978;-68
2023/10/22 03:04:12;;;;;;;41.30;37.20;;;;;;;14.87;100.00;97716.61;109607;1250;59092;-69
2023/10/22 03:06:38;;;;;;;32.60;29.40;;;;;;;14.87;100.00;97712.52;109577;1251;58953;-69
2023/10/22 03:09:05;;;;;;;30.60;27.40;;;;;;;14.86;100.00;97712.25;109490;1251;59105;-70
2023/10/22 03:11:31;;;;;;;30.60;27.40;;;;;;;14.84;100.00;97708.02;109601;1250;58980;-70
2023/10/22 03:13:58;;;;;;;31.40;28.10;;;;;;;14.82;100.00;97703.05;109617;1250;58917;-70
2023/10/22 03:16:24;;;;;;;35.30;31.20;;;;;;;14.81;100.00;97701.00;109360;1251;59903;-70
2023/10/22 03:18:51;;;;;;;35.20;31.40;;;;;;;14.82;100.00;97700.57;109577;1251;69083;-70
2023/10/22 03:21:19;;;;;;;32.50;29.20;;;;;;;14.85;100.00;97692.02;109649;1250;59052;-70
2023/10/22 03:23:47;;;;;;;34.40;27.90;;;;;;;14.86;100.00;97692.60;109494;1251;67277;-70
2023/10/22 03:26:16;;;;;;;35.50;31.70;;;;;;;14.85;100.00;97689.48;109650;1250;60202;-70
2023/10/22 03:28:43;;;;;;;33.60;30.10;;;;;;;14.83;100.00;97685.19;109600;1251;63952;-70
2023/10/22 03:31:09;;;;;;;30.90;27.80;;;;;;;14.83;100.00;97681.86;109633;1250;59042;-70
2023/10/22 03:33:36;;;;;;;30.30;27.10;;;;;;;14.82;100.00;97684.59;109518;1251;59083;-70
2023/10/22 03:36:04;;;;;;;33.00;29.90;;;;;;;14.83;100.00;97685.54;109614;1250;64685;-70
2023/10/22 03:38:31;;;;;;;33.00;29.50;;;;;;;14.83;100.00;97690.17;109627;1250;59994;-70
2023/10/22 03:40:58;;;;;;;32.90;29.80;;;;;;;14.82;100.00;97694.97;109540;1251;63764;-70
2023/10/22 03:43:29;;;;;;;33.60;30.30;;;;;;;14.79;100.00;97695.65;109505;1251;59118;-68
2023/10/22 03:45:57;;;;;;;33.70;30.20;;;;;;;14.77;100.00;97696.03;109643;1250;58872;-69
2023/10/22 03:48:24;;;;;;;32.80;29.30;;;;;;;14.77;100.00;97696.23;109625;1250;67174;-69
2023/10/22 03:50:51;;;;;;;31.40;28.20;;;;;;;14.77;100.00;97696.81;109619;1250;59261;-69
2023/10/22 03:53:18;;;;;;;29.50;26.30;;;;;;;14.76;100.00;97698.29;109625;1250;64992;-69
2023/10/22 03:55:45;;;;;;;29.70;26.60;;;;;;;14.75;100.00;97699.16;109585;1250;59308;-69
2023/10/22 03:58:11;;;;;;;28.20;25.40;;;;;;;14.73;100.00;97695.23;109611;1250;58933;-68
2023/10/22 04:00:38;;;;;;;30.50;27.00;;;;;;;14.71;100.00;97699.67;109602;1250;58978;-69
2023/10/22 04:03:05;;;;;;;29.60;26.60;;;;;;;14.69;100.00;97702.05;109627;1250;59858;-69
2023/10/22 04:05:32;;;;;;;27.00;24.10;;;;;;;14.69;100.00;97703.08;109541;1251;62841;-69
2023/10/22 04:07:59;;;;;;;25.80;23.20;;;;;;;14.69;100.00;97701.01;109614;1250;59211;-69
2023/10/22 04:10:26;;;;;;;26.80;24.10;;;;;;;14.67;100.00;97703.83;109656;1250;58943;-69
2023/10/22 04:12:52;;;;;;;25.00;22.60;;;;;;;14.66;100.00;97707.49;109586;1251;65866;-68
2023/10/22 04:15:19;;;;;;;22.20;20.10;;;;;;;14.65;100.00;97708.20;109652;1250;58973;-68
2023/10/22 04:17:46;;;;;;;33.40;29.70;;;;;;;14.64;100.00;97711.54;109648;1250;59960;-69
2023/10/22 04:20:13;;;;;;;24.00;21.50;;;;;;;14.64;100.00;97713.30;109584;1250;59086;-69
2023/10/22 04:22:43;;;;;;;23.10;20.80;;;;;;;14.64;100.00;97713.67;109573;1251;59461;-69
2023/10/22 04:25:11;;;;;;;20.10;18.20;;;;;;;14.62;100.00;97716.35;109639;1250;64832;-69
2023/10/22 04:27:37;;;;;;;21.20;19.00;;;;;;;14.59;100.00;97719.90;109417;1251;59348;-69
2023/10/22 04:30:05;;;;;;;19.40;17.70;;;;;;;14.58;100.00;97716.67;109626;1250;63779;-68
2023/10/22 04:32:33;;;;;;;31.90;28.70;;;;;;;14.56;100.00;97715.19;109590;1250;59017;-69
2023/10/22 04:35:00;;;;;;;39.60;35.60;;;;;;;14.58;100.00;97714.89;109521;1250;59091;-69
2023/10/22 04:37:27;;;;;;;36.20;32.40;;;;;;;14.58;100.00;97715.33;109552;1251;65728;-68
2023/10/22 04:39:56;;;;;;;31.00;27.40;;;;;;;14.59;100.00;97713.16;109656;1250;59069;-69
2023/10/22 04:42:24;;;;;;;33.40;28.70;;;;;;;14.58;100.00;97708.53;109566;1251;64024;-69
2023/10/22 04:44:51;;;;;;;29.60;23.80;;;;;;;14.60;100.00;97706.27;109580;1250;59000;-69
2023/10/22 04:47:17;;;;;;;25.50;21.50;;;;;;;14.61;100.00;97699.47;109603;1250;59030;-69
2023/10/22 04:49:44;;;;;;;23.90;20.80;;;;;;;14.63;100.00;97684.79;109622;1250;59073;-69
2023/10/22 04:52:17;;;;;;;22.30;20.00;;;;;;;14.64;100.00;97668.30;109538;1251;60233;-69
2023/10/22 04:54:43;;;;;;;20.00;17.70;;;;;;;14.63;100.00;97656.94;109570;1251;63759;-69
2023/10/22 04:57:10;;;;;;;21.50;18.80;;;;;;;14.61;100.00;97645.52;109532;1250;59014;-69
2023/10/22 04:59:36;;;;;;;19.90;17.90;;;;;;;14.58;100.00;97646.60;109622;1250;58975;-68
2023/10/22 05:02:03;;;;;;;20.10;17.80;;;;;;;14.55;100.00;97648.50;109632;1250;67013;-68
2023/10/22 05:04:30;;;;;;;19.30;17.40;;;;;;;14.53;100.00;97658.72;109623;1250;60160;-68
2023/10/22 05:06:57;;;;;;;17.00;15.20;;;;;;;14.52;100.00;97670.43;109619;1250;63976;-68
2023/10/22 05:09:23;;;;;;;17.90;15.90;;;;;;;14.51;100.00;97679.75;109587;1250;59005;-69
2023/10/22 05:11:50;;;;;;;19.10;17.10;;;;;;;14.50;100.00;97691.23;109621;1250;58877;-68
2023/10/22 05:14:16;;;;;;;18.30;16.40;;;;;;;14.50;100.00;97701.44;109645;1250;59338;-68
2023/10/22 05:16:43;;;;;;;19.80;17.40;;;;;;;14.49;100.00;97708.34;109685;1250;59580;-69
2023/10/22 05:19:10;;;;;;;18.90;16.90;;;;;;;14.47;100.00;97708.53;109607;1250;64057;-68
2023/10/22 05:21:39;;;;;;;19.30;17.20;;;;;;;14.46;100.00;97710.11;109609;1250;59184;-68
2023/10/22 05:24:07;;;;;;;17.90;16.10;;;;;;;14.43;100.00;97707.37;109600;1250;59883;-69
2023/10/22 05:26:33;;;;;;;17.90;16.00;;;;;;;14.42;100.00;97707.67;109672;1250;66081;-69
2023/10/22 05:29:00;;;;;;;19.80;16.90;;;;;;;14.41;100.00;97709.78;109642;1250;58974;-69
2023/10/22 05:31:26;;;;;;;18.40;16.50;;;;;;;14.39;100.00;97710.48;109583;1250;59057;-69
2023/10/22 05:33:52;;;;;;;16.40;14.70;;;;;;;14.38;100.00;97709.70;109582;1251;58985;-69
2023/10/22 05:36:20;;;;;;;17.50;15.60;;;;;;;14.38;100.00;97707.79;109622;1250;59084;-70
2023/10/22 05:38:48;;;;;;;16.80;15.10;;;;;;;14.37;100.00;97704.77;109521;1251;65645;-69
2023/10/22 05:41:26;;;;;;;37.70;34.20;;;;;;;14.36;100.00;97703.08;109559;1250;61337;-68
2023/10/22 05:44:01;;;;;;;34.90;31.60;;;;;;;14.38;100.00;97703.50;109612;1250;63732;-69
2023/10/22 05:46:33;;;;;;;37.60;33.80;;;;;;;14.38;100.00;97702.56;109519;1250;58976;-69
2023/10/22 05:49:03;;;;;;;42.40;38.40;;;;;;;14.40;100.00;97701.15;109540;1250;59317;-70
2023/10/22 05:51:30;;;;;;;45.20;40.70;;;;;;;14.41;100.00;97705.83;109426;1251;67487;-69
2023/10/22 05:53:57;;;;;;;47.40;42.90;;;;;;;14.41;100.00;97708.64;109609;1250;60214;-70
2023/10/22 05:56:26;;;;;;;41.00;36.70;;;;;;;14.42;100.00;97709.65;109617;1250;58993;-70
2023/10/22 05:58:52;;;;;;;37.10;33.00;;;;;;;14.43;100.00;97711.50;109509;1251;59745;-69
2023/10/22 06:01:19;;;;;;;41.80;37.20;;;;;;;14.45;100.00;97714.15;109647;1250;58985;-70
2023/10/22 06:03:45;;;;;;;34.10;30.20;;;;;;;14.47;100.00;97713.42;109619;1250;59209;-69
2023/10/22 06:06:11;;;;;;;31.00;24.40;;;;;;;14.50;100.00;97716.36;109639;1250;59345;-69
2023/10/22 06:08:38;;;;;;;29.70;24.90;;;;;;;14.53;100.00;97716.25;109642;1250;59083;-69
2023/10/22 06:11:04;;;;;;;33.30;19.00;;;;;;;14.56;100.00;97717.40;109610;1250;58962;-69
2023/10/22 06:13:32;;;;;;;39.70;18.80;;;;;;;14.59;100.00;97720.13;109641;1250;59002;-69
2023/10/22 06:15:58;;;;;;;29.50;18.30;;;;;;;14.63;100.00;97719.84;109601;1250;64783;-69
2023/10/22 06:18:24;;;;;;;21.30;17.50;;;;;;;14.67;100.00;97718.67;109662;1250;59108;-70
2023/10/22 06:20:51;;;;;;;28.50;23.00;;;;;;;14.72;100.00;97721.98;109614;1251;59059;-69
2023/10/22 06:23:17;;;;;;;35.80;24.90;;;;;;;14.76;100.00;97729.08;109603;1250;58997;-69
2023/10/22 06:25:44;;;;;;;27.80;22.70;;;;;;;14.81;100.00;97729.27;109634;1250;59168;-69
2023/10/22 06:28:11;;;;;;;38.60;21.40;;;;;;;14.85;100.00;97730.92;109556;1251;66906;-68
2023/10/22 06:30:37;;;;;;;32.00;24.70;;;;;;;14.90;100.00;97731.31;109634;1250;60192;-69
2023/10/22 06:33:04;;;;;;;39.60;21.00;;;;;;;14.95;100.00;97725.60;109568;1250;59044;-70
2023/10/22 06:35:30;;;;;;;48.30;22.90;;;;;;;15.00;100.00;97718.80;109619;1250;59042;-69
2023/10/22 06:37:57;;;;;;;41.80;21.90;;;;;;;15.04;100.00;97716.95;109538;1251;59023;-70
2023/10/22 06:40:24;;;;;;;53.10;24.30;;;;;;;15.08;100.00;97714.61;109636;1250;66938;-70
2023/10/22 06:42:51;;;;;;;39.80;21.00;;;;;;;15.12;100.00;97712.55;109588;1250;60623;-69
2023/10/22 06:45:18;;;;;;;34.30;20.60;;;;;;;15.17;100.00;97712.60;109550;1251;64131;-69
2023/10/22 06:47:46;;;;;;;30.60;20.30;;;;;;;15.20;100.00;97709.59;109582;1250;59068;-69
2023/10/22 06:50:13;;;;;;;30.20;19.60;;;;;;;15.23;100.00;97706.03;109629;1250;59032;-69
2023/10/22 06:52:43;;;;;;;32.20;17.90;;;;;;;15.24;100.00;97704.83;109642;1250;65753;-70
2023/10/22 06:55:10;;;;;;;32.60;17.30;;;;;;;15.22;100.00;97706.30;109611;1250;59287;-69
2023/10/22 06:57:38;;;;;;;30.70;17.80;;;;;;;15.21;100.00;97707.10;109585;1250;62541;-69
2023/10/22 07:00:08;;;;;;;25.00;18.00;;;;;;;15.22;100.00;97705.79;109582;1250;59194;-69
2023/10/22 07:02:34;;;;;;;33.10;17.00;;;;;;;15.22;100.00;97702.67;109551;1251;59321;-69
2023/10/22 07:05:01;;;;;;;22.50;18.60;;;;;;;15.22;100.00;97698.42;109607;1250;66063;-69
2023/10/22 07:07:28;;;;;;;20.80;17.70;;;;;;;15.23;100.00;97702.62;109627;1250;59906;-69
2023/10/22 07:09:55;;;;;;;20.80;17.40;;;;;;;15.23;100.00;97705.43;109563;1251;63805;-70
2023/10/22 07:12:24;;;;;;;19.10;16.70;;;;;;;15.24;100.00;97712.87;109531;1250;59365;-69
2023/10/22 07:14:51;;;;;;;20.10;17.20;;;;;;;15.23;100.00;97721.63;109522;1251;59476;-69
2023/10/22 07:17:17;;;;;;;22.50;17.80;;;;;;;15.23;100.00;97721.44;109657;1250;58912;-69
2023/10/22 07:19:43;;;;;;;24.80;20.10;;;;;;;15.25;100.00;97727.65;109629;1250;59170;-69
2023/10/22 07:22:10;;;;;;;23.20;19.00;;;;;;;15.29;100.00;97734.30;109620;1250;59018;-69
2023/10/22 07:24:36;;;;;;;24.70;18.80;;;;;;;15.33;100.00;97744.42;109589;1250;58945;-69
2023/10/22 07:27:03;;;;;;;22.10;17.60;;;;;;;15.37;100.00;97747.98;109568;1250;58997;-69
2023/10/22 07:29:30;;;;;;;19.00;17.00;;;;;;;15.39;100.00;97755.54;109400;1250;67473;-69
2023/10/22 07:31:56;;;;;;;18.70;16.20;;;;;;;15.40;100.00;97761.28;109506;1251;59087;-69
2023/10/22 07:34:22;;;;;;;17.40;14.80;;;;;;;15.41;100.00;97763.70;109605;1250;59046;-70
2023/10/22 07:36:49;;;;;;;17.80;15.20;;;;;;;15.41;100.00;97767.09;109543;1250;58974;-69
2023/10/22 07:39:15;;;;;;;18.70;15.00;;;;;;;15.43;100.00;97764.52;109621;1250;58983;-70
2023/10/22 07:41:42;;;;;;;18.80;16.50;;;;;;;15.46;100.00;97768.85;109586;1250;59074;-70
2023/10/22 07:44:09;;;;;;;18.90;16.20;;;;;;;15.48;100.00;97770.08;109614;1250;59276;-70
2023/10/22 07:46:35;;;;;;;22.40;18.00;;;;;;;15.49;100.00;97767.35;109428;1251;62430;-69
2023/10/22 07:49:02;;;;;;;68.70;61.80;;;;;;;15.51;100.00;97766.38;109583;1250;59153;-69
2023/10/22 07:51:29;;;;;;;26.20;23.30;;;;;;;15.56;100.00;97766.41;109489;1251;59217;-69
2023/10/22 07:53:55;;;;;;;27.40;21.70;;;;;;;15.61;100.00;97759.63;109622;1250;75503;-69
2023/10/22 07:56:22;;;;;;;27.00;22.10;;;;;;;15.65;100.00;97757.38;109576;1250;59398;-69
2023/10/22 07:58:48;;;;;;;25.20;21.60;;;;;;;15.68;100.00;97758.36;109654;1250;62881;-69
2023/10/22 08:01:15;;;;;;;23.70;21.20;;;;;;;15.69;100.00;97756.58;109589;1250;58997;-69
2023/10/22 08:03:41;;;;;;;25.50;22.80;;;;;;;15.74;100.00;97753.23;109583;1251;59074;-69
2023/10/22 08:06:08;;;;;;;24.60;22.00;;;;;;;15.79;100.00;97752.70;109535;1252;65692;-69
2023/10/22 08:08:34;;;;;;;25.70;21.90;;;;;;;15.84;100.00;97753.21;109529;1253;59003;-69
2023/10/22 08:11:03;;;;;;;26.50;20.20;;;;;;;15.86;100.00;97751.87;109539;1252;62817;-69
2023/10/22 08:13:30;;;;;;;23.40;20.90;;;;;;;15.89;100.00;97754.09;109364;1252;59178;-69
2023/10/22 08:15:56;;;;;;;25.50;20.70;;;;;;;15.93;100.00;97752.91;109516;1252;59236;-69
2023/10/22 08:18:23;;;;;;;21.80;18.10;;;;;;;15.99;100.00;97755.36;109528;1253;66015;-69
2023/10/22 08:20:50;;;;;;;21.70;18.90;;;;;;;16.06;100.00;97757.41;109514;1252;61289;-69
2023/10/22 08:23:17;;;;;;;21.00;18.80;;;;;;;16.14;100.00;97759.40;109514;1253;64271;-69
2023/10/22 08:25:51;;;;;;;20.50;18.20;;;;;;;16.22;100.00;97760.84;109539;1252;58942;-69
2023/10/22 08:28:18;;;;;;;20.30;18.00;;;;;;;16.30;100.00;97767.13;109557;1252;58959;-69
2023/10/22 08:30:45;;;;;;;19.00;17.00;;;;;;;16.40;100.00;97767.52;109555;1253;65713;-70
2023/10/22 08:33:12;;;;;;;25.00;22.10;;;;;;;16.52;100.00;97767.96;109475;1252;59754;-69
2023/10/22 08:35:39;;;;;;;25.60;22.80;;;;;;;16.61;100.00;97763.92;109510;1252;62606;-69
2023/10/22 08:38:06;;;;;;;21.90;19.60;;;;;;;16.72;100.00;97765.85;109479;1251;58935;-70
2023/10/22 08:40:38;;;;;;;23.50;20.40;;;;;;;16.85;100.00;97767.90;109516;1253;59052;-70
2023/10/22 08:43:18;;;;;;;23.20;20.00;;;;;;;16.98;100.00;97772.91;109536;1252;64868;-70
2023/10/22 08:45:50;;;;;;;22.30;18.90;;;;;;;17.08;100.00;97773.33;109550;1253;59977;-69
2023/10/22 08:48:18;;;;;;;19.00;17.00;;;;;;;17.16;100.00;97775.86;109499;1252;64178;-70
2023/10/22 08:50:47;;;;;;;17.20;15.40;;;;;;;17.22;100.00;97778.23;109513;1253;58954;-69
2023/10/22 08:53:14;;;;;;;19.30;17.30;;;;;;;17.32;100.00;97773.85;109499;1252;59103;-70
2023/10/22 08:55:47;;;;;;;14.90;13.40;;;;;;;17.43;100.00;97777.67;109488;1254;66052;-70
2023/10/22 08:58:16;;;;;;;15.90;14.10;;;;;;;17.46;100.00;97781.73;109516;1251;60344;-70
2023/10/22 09:00:47;;;;;;;15.70;14.10;;;;;;;17.40;100.00;97787.14;109521;1252;63813;-69
2023/10/22 09:03:15;;;;;;;16.40;14.80;;;;;;;17.34;100.00;97791.58;109505;1252;59030;-69
2023/10/22 09:05:43;;;;;;;14.80;13.50;;;;;;;17.24;100.00;97791.62;109545;1252;59693;-69
2023/10/22 09:08:09;;;;;;;16.60;15.00;;;;;;;17.17;100.00;97792.86;109333;1251;231054;-69
2023/10/22 09:10:37;;;;;;;17.40;15.70;;;;;;;17.11;100.00;97791.84;109515;1251;59956;-69
2023/10/22 09:13:06;;;;;;;20.40;17.80;;;;;;;17.09;100.00;97791.34;109530;1253;63880;-69
2023/10/22 09:15:41;;;;;;;29.30;20.70;;;;;;;17.04;100.00;97794.95;109503;1252;58941;-71
2023/10/22 09:18:08;;;;;;;27.90;20.40;;;;;;;16.94;100.00;97792.40;109532;1252;60174;-69
2023/10/22 09:20:34;;;;;;;17.20;15.40;;;;;;;16.87;100.00;97795.30;109568;1253;66178;-69
2023/10/22 09:23:18;;;;;;;16.50;14.00;;;;;;;16.80;100.00;97795.77;109520;1253;60346;-70
2023/10/22 09:25:46;;;;;;;14.10;12.60;;;;;;;16.76;100.00;97800.23;109530;1252;63746;-70
2023/10/22 09:28:27;;;;;;;14.30;12.90;;;;;;;16.76;100.00;97804.09;109564;1253;58961;-70
2023/10/22 09:31:00;;;;;;;13.20;11.90;;;;;;;16.76;100.00;97808.36;109572;1252;59006;-69
2023/10/22 09:33:32;;;;;;;13.90;12.40;;;;;;;16.76;100.00;97806.70;109527;1252;65856;-69
2023/10/22 09:36:02;;;;;;;14.00;12.60;;;;;;;16.80;100.00;97804.91;109551;1252;60232;-69
2023/10/22 09:38:48;;;;;;;13.40;12.10;;;;;;;16.83;100.00;97808.44;109488;1252;64897;-69
2023/10/22 09:41:25;;;;;;;14.50;13.00;;;;;;;16.85;100.00;97811.66;109504;1252;59168;-69
2023/10/22 09:43:57;;;;;;;14.90;12.80;;;;;;;16.89;100.00;97814.95;109551;1252;58953;-69
2023/10/22 09:46:32;;;;;;;16.70;13.20;;;;;;;16.97;100.00;97815.71;109551;1252;65714;-69
2023/10/22 09:48:59;;;;;;;15.70;14.10;;;;;;;17.04;100.00;97819.92;109524;1253;60062;-70
2023/10/22 09:51:31;;;;;;;16.30;14.20;;;;;;;17.12;100.00;97828.41;109532;1252;64020;-69
2023/10/22 09:54:05;;;;;;;16.20;12.80;;;;;;;17.17;100.00;97832.67;109491;1252;59038;-69
2023/10/22 09:56:37;;;;;;;15.70;13.20;;;;;;;17.19;100.00;97832.80;109520;1253;59428;-69
2023/10/22 09:59:07;;;;;;;13.60;12.30;;;;;;;17.20;100.00;97832.46;109539;1252;66961;-69
2023/10/22 10:01:34;;;;;;;17.30;14.10;;;;;;;17.19;100.00;97834.05;109539;1253;59784;-69
2023/10/22 10:04:03;;;;;;;14.30;12.80;;;;;;;17.14;100.00;97838.54;109528;1251;63734;-69
2023/10/22 10:06:30;;;;;;;13.80;12.50;;;;;;;17.17;100.00;97838.77;109509;1253;59265;-69
2023/10/22 10:08:59;;;;;;;9.20;8.30;;;;;;;17.22;100.00;97837.48;109493;1252;59060;-69
2023/10/22 10:11:27;;;;;;;6.80;6.10;;;;;;;17.19;100.00;97835.13;109545;1251;64772;-69
2023/10/22 10:13:53;;;;;;;5.60;5.00;;;;;;;17.17;100.00;97833.75;109551;1251;60224;-69
2023/10/22 10:16:23;;;;;;;6.30;4.90;;;;;;;17.18;100.00;97834.52;109515;1251;59138;-68
2023/10/22 10:19:08;;;;;;;5.40;3.80;;;;;;;17.13;100.00;97829.13;109485;1252;58941;-69
2023/10/22 10:21:39;;;;;;;4.00;2.60;;;;;;;17.01;100.00;97827.48;109553;1252;59057;-69
2023/10/22 10:24:17;;;;;;;3.40;2.30;;;;;;;16.93;100.00;97832.50;109555;1253;65869;-69
2023/10/22 10:26:45;;;;;;;3.40;2.50;;;;;;;16.88;100.00;97833.58;109539;1251;61446;-69
2023/10/22 10:29:19;;;;;;;2.50;2.30;;;;;;;16.88;100.00;97832.81;109496;1254;62817;-69
2023/10/22 10:31:51;;;;;;;3.20;2.50;;;;;;;16.87;100.00;97836.31;109467;1253;59023;-69
2023/10/22 10:34:27;;;;;;;4.60;3.70;;;;;;;16.87;100.00;97837.28;109515;1253;59036;-70
2023/10/22 10:36:54;;;;;;;11.70;10.20;;;;;;;16.89;100.00;97836.71;109536;1252;64840;-69
2023/10/22 10:39:44;;;;;;;15.80;14.00;;;;;;;16.95;100.00;97842.45;109523;1253;60248;-70
2023/10/22 10:42:12;;;;;;;13.70;12.20;;;;;;;17.00;100.00;97836.32;109497;1253;74164;-69
2023/10/22 10:44:54;;;;;;;6.20;5.50;;;;;;;17.05;100.00;97839.58;109377;1252;59027;-70
2023/10/22 10:47:20;;;;;;;6.50;4.60;;;;;;;17.07;100.00;97841.52;109563;1251;59830;-70
2023/10/22 10:50:02;;;;;;;5.70;5.20;;;;;;;16.94;100.00;97842.02;109520;1253;75790;-70
2023/10/22 10:52:31;;;;;;;9.80;8.30;;;;;;;16.77;100.00;97846.02;109491;1254;59863;-69
2023/10/22 10:55:20;;;;;;;13.30;9.40;;;;;;;16.64;100.00;97851.73;109488;1253;62899;-69
2023/10/22 10:57:51;;;;;;;14.00;9.50;;;;;;;16.52;100.00;97852.02;108907;1259;59074;-69
2023/10/22 11:00:19;;;;;;;30.10;21.20;;;;;;;16.43;100.00;97849.64;108936;1259;59168;-69
2023/10/22 11:02:49;;;;;;;12.20;8.50;;;;;;;16.31;100.00;97850.90;108914;1259;67038;-70
2023/10/22 11:05:18;;;;;;;10.00;6.60;;;;;;;16.22;100.00;97858.89;108926;1259;59058;-70